createdAt,value
2023-06-11T00:02:05.159Z,21.77
2023-06-11T00:04:35.864Z,21.77
2023-06-11T00:07:06.440Z,21.71
2023-06-11T00:09:34.626Z,21.67
2023-06-11T00:12:02.197Z,21.69
2023-06-11T00:14:29.715Z,21.74
2023-06-11T00:16:58.583Z,21.70
2023-06-11T00:19:30.087Z,21.67
2023-06-11T00:21:58.062Z,21.60
2023-06-11T00:24:25.671Z,21.58
2023-06-11T00:26:53.166Z,21.58
2023-06-11T00:29:20.669Z,21.61
2023-06-11T00:31:48.238Z,21.53
2023-06-11T00:34:17.201Z,21.56
2023-06-11T00:36:45.251Z,21.60
2023-06-11T00:39:13.354Z,21.53
2023-06-11T00:41:46.529Z,21.55
2023-06-11T00:44:18.550Z,21.46
2023-06-11T00:46:48.320Z,21.44
2023-06-11T00:49:17.261Z,21.40
2023-06-11T00:51:46.898Z,21.37
2023-06-11T00:54:17.717Z,21.41
2023-06-11T00:56:45.460Z,21.39
2023-06-11T00:59:14.323Z,21.34
2023-06-11T01:01:47.773Z,21.24
2023-06-11T01:04:19.503Z,21.16
2023-06-11T01:06:50.701Z,21.08
2023-06-11T01:09:21.776Z,21.09
2023-06-11T01:11:50.318Z,21.10
2023-06-11T01:14:18.652Z,21.03
2023-06-11T01:16:53.802Z,21.04
2023-06-11T01:19:48.390Z,21.01
2023-06-11T01:22:20.568Z,20.99
2023-06-11T01:25:08.952Z,20.96
2023-06-11T01:27:57.137Z,20.97
2023-06-11T01:30:25.556Z,20.96
2023-06-11T01:32:57.045Z,20.90
2023-06-11T01:35:24.957Z,20.93
2023-06-11T01:37:56.507Z,20.90
2023-06-11T01:40:24.890Z,20.86
2023-06-11T01:42:54.134Z,20.80
2023-06-11T01:45:23.280Z,20.70
2023-06-11T01:47:52.539Z,20.53
2023-06-11T01:50:21.463Z,20.63
2023-06-11T01:52:49.367Z,20.70
2023-06-11T01:55:17.037Z,20.38
2023-06-11T01:57:44.560Z,20.56
2023-06-11T02:00:14.211Z,20.70
2023-06-11T02:02:43.084Z,20.68
2023-06-11T02:05:11.252Z,20.61
2023-06-11T02:07:39.163Z,20.65
2023-06-11T02:10:07.446Z,20.65
2023-06-11T02:12:34.958Z,20.67
2023-06-11T02:15:02.500Z,20.69
2023-06-11T02:17:31.325Z,20.67
2023-06-11T02:19:59.696Z,20.49
2023-06-11T02:22:27.263Z,20.41
2023-06-11T02:24:54.775Z,20.52
2023-06-11T02:27:22.335Z,20.55
2023-06-11T02:29:49.827Z,20.50
2023-06-11T02:32:17.457Z,20.48
2023-06-11T02:34:46.383Z,20.45
2023-06-11T02:37:13.987Z,20.38
2023-06-11T02:39:41.507Z,20.33
2023-06-11T02:42:09.704Z,20.30
2023-06-11T02:44:37.326Z,20.28
2023-06-11T02:47:05.255Z,20.18
2023-06-11T02:49:32.809Z,20.20
2023-06-11T02:52:01.834Z,20.15
2023-06-11T02:54:29.403Z,20.14
2023-06-11T02:56:56.913Z,20.10
2023-06-11T02:59:24.443Z,20.12
2023-06-11T03:01:52.153Z,20.10
2023-06-11T03:04:20.004Z,20.10
2023-06-11T03:06:47.526Z,20.08
2023-06-11T03:09:16.348Z,20.08
2023-06-11T03:11:43.839Z,19.94
2023-06-11T03:14:11.369Z,19.78
2023-06-11T03:16:38.889Z,19.86
2023-06-11T03:19:06.409Z,19.89
2023-06-11T03:21:33.927Z,19.84
2023-06-11T03:24:01.571Z,19.85
2023-06-11T03:26:30.424Z,19.76
2023-06-11T03:28:57.946Z,19.71
2023-06-11T03:31:25.600Z,19.70
2023-06-11T03:33:53.185Z,19.63
2023-06-11T03:36:20.754Z,19.62
2023-06-11T03:38:48.254Z,19.60
2023-06-11T03:41:16.000Z,19.57
2023-06-11T03:43:44.821Z,19.54
2023-06-11T03:46:12.373Z,19.54
2023-06-11T03:48:39.860Z,19.47
2023-06-11T03:51:07.770Z,19.47
2023-06-11T03:53:35.308Z,19.49
2023-06-11T03:56:02.814Z,19.50
2023-06-11T03:58:30.347Z,19.49
2023-06-11T04:00:59.313Z,19.44
2023-06-11T04:03:26.989Z,19.49
2023-06-11T04:05:54.565Z,19.53
2023-06-11T04:08:22.103Z,19.54
2023-06-11T04:10:49.647Z,19.56
2023-06-11T04:13:17.159Z,19.59
2023-06-11T04:15:44.665Z,19.58
2023-06-11T04:18:13.646Z,19.59
2023-06-11T04:20:41.201Z,19.47
2023-06-11T04:23:08.766Z,19.37
2023-06-11T04:25:37.507Z,19.47
2023-06-11T04:28:05.598Z,19.55
2023-06-11T04:30:34.553Z,19.56
2023-06-11T04:33:05.543Z,19.65
2023-06-11T04:35:35.297Z,19.63
2023-06-11T04:38:04.048Z,19.72
2023-06-11T04:40:31.575Z,19.78
2023-06-11T04:42:59.759Z,19.75
2023-06-11T04:45:27.869Z,19.77
2023-06-11T04:47:55.411Z,19.72
2023-06-11T04:50:23.088Z,19.71
2023-06-11T04:52:53.153Z,19.77
2023-06-11T04:55:25.554Z,19.77
2023-06-11T04:57:53.788Z,19.75
2023-06-11T05:00:21.403Z,19.79
2023-06-11T05:02:50.874Z,19.83
2023-06-11T05:05:18.554Z,19.79
2023-06-11T05:07:46.195Z,19.82
2023-06-11T05:10:16.633Z,19.85
2023-06-11T05:12:44.197Z,19.93
2023-06-11T05:15:12.638Z,20.01
2023-06-11T05:17:40.551Z,20.05
2023-06-11T05:20:10.180Z,20.14
2023-06-11T05:22:37.744Z,20.18
2023-06-11T05:25:05.932Z,20.18
2023-06-11T05:27:34.764Z,20.29
2023-06-11T05:30:03.228Z,20.31
2023-06-11T05:32:32.286Z,20.42
2023-06-11T05:35:00.049Z,20.50
2023-06-11T05:37:27.580Z,20.53
2023-06-11T05:39:55.189Z,20.59
2023-06-11T05:42:22.759Z,20.70
2023-06-11T05:44:51.581Z,20.77
2023-06-11T05:47:19.460Z,20.86
2023-06-11T05:49:47.122Z,20.99
2023-06-11T05:52:14.684Z,21.06
2023-06-11T05:54:42.227Z,21.14
2023-06-11T05:57:19.843Z,21.24
2023-06-11T05:59:47.413Z,21.30
2023-06-11T06:02:16.482Z,21.34
2023-06-11T06:04:44.129Z,21.42
2023-06-11T06:07:11.644Z,21.51
2023-06-11T06:09:39.252Z,21.54
2023-06-11T06:12:07.862Z,21.67
2023-06-11T06:14:35.964Z,21.76
2023-06-11T06:17:03.561Z,21.74
2023-06-11T06:19:32.422Z,21.82
2023-06-11T06:21:59.944Z,21.88
2023-06-11T06:24:27.579Z,21.94
2023-06-11T06:26:57.374Z,22.04
2023-06-11T06:29:25.221Z,22.24
2023-06-11T06:31:52.787Z,22.32
2023-06-11T06:34:20.374Z,22.44
2023-06-11T06:36:49.215Z,22.59
2023-06-11T06:39:16.764Z,22.64
2023-06-11T06:41:44.271Z,22.67
2023-06-11T06:44:11.977Z,22.77
2023-06-11T06:46:39.674Z,22.78
2023-06-11T06:49:07.219Z,22.93
2023-06-11T06:51:34.910Z,22.90
2023-06-11T06:54:03.803Z,22.95
2023-06-11T06:56:31.335Z,22.97
2023-06-11T06:58:58.851Z,22.98
2023-06-11T07:01:26.469Z,23.04
2023-06-11T07:03:54.014Z,23.02
2023-06-11T07:06:21.606Z,23.03
2023-06-11T07:08:49.220Z,23.09
2023-06-11T07:11:18.209Z,23.20
2023-06-11T07:13:45.713Z,23.24
2023-06-11T07:16:13.493Z,23.30
2023-06-11T07:18:41.116Z,23.29
2023-06-11T07:21:09.394Z,23.45
2023-06-11T07:23:36.951Z,23.53
2023-06-11T07:26:04.618Z,23.65
2023-06-11T07:28:33.484Z,23.76
2023-06-11T07:31:01.041Z,23.81
2023-06-11T07:33:28.648Z,23.82
2023-06-11T07:35:57.153Z,23.81
2023-06-11T07:38:25.047Z,23.89
2023-06-11T07:40:53.199Z,23.96
2023-06-11T07:43:20.752Z,24.06
2023-06-11T07:45:49.840Z,24.12
2023-06-11T07:48:19.295Z,24.10
2023-06-11T07:50:46.770Z,24.09
2023-06-11T07:53:14.861Z,24.20
2023-06-11T07:55:43.588Z,24.21
2023-06-11T07:58:11.099Z,24.14
2023-06-11T08:00:38.667Z,24.23
2023-06-11T08:03:07.590Z,24.28
2023-06-11T08:05:35.163Z,24.31
2023-06-11T08:08:02.726Z,24.48
2023-06-11T08:10:30.241Z,24.61
2023-06-11T08:12:57.734Z,24.63
2023-06-11T08:15:25.505Z,24.68
2023-06-11T08:17:53.367Z,24.68
2023-06-11T08:20:22.526Z,24.75
2023-06-11T08:22:50.144Z,24.89
2023-06-11T08:25:17.842Z,25.01
2023-06-11T08:27:45.590Z,25.03
2023-06-11T08:30:14.087Z,25.11
2023-06-11T08:32:41.777Z,25.22
2023-06-11T08:35:09.822Z,25.20
2023-06-11T08:37:38.711Z,25.14
2023-06-11T08:40:11.896Z,25.22
2023-06-11T08:42:39.759Z,25.25
2023-06-11T08:45:08.770Z,25.43
2023-06-11T08:47:42.309Z,25.46
2023-06-11T08:50:11.462Z,25.47
2023-06-11T08:52:43.709Z,25.63
2023-06-11T08:55:11.497Z,25.61
2023-06-11T08:57:39.499Z,25.61
2023-06-11T09:00:11.184Z,25.75
2023-06-11T09:02:39.239Z,25.92
2023-06-11T09:05:07.479Z,25.88
2023-06-11T09:07:37.349Z,26.00
2023-06-11T09:10:08.317Z,26.02
2023-06-11T09:12:37.124Z,26.01
2023-06-11T09:15:06.995Z,26.05
2023-06-11T09:17:35.688Z,26.01
2023-06-11T09:20:07.152Z,26.06
2023-06-11T09:22:37.227Z,25.95
2023-06-11T09:25:10.025Z,26.01
2023-06-11T09:27:39.351Z,26.11
2023-06-11T09:30:17.206Z,26.21
2023-06-11T09:32:47.270Z,26.05
2023-06-11T09:35:22.213Z,25.79
2023-06-11T09:37:52.060Z,25.84
2023-06-11T09:40:25.359Z,25.69
2023-06-11T09:42:53.554Z,25.55
2023-06-11T09:45:24.577Z,25.79
2023-06-11T09:47:52.881Z,26.12
2023-06-11T09:50:25.119Z,26.26
2023-06-11T09:52:56.001Z,26.45
2023-06-11T09:55:27.214Z,26.41
2023-06-11T09:57:56.117Z,26.51
2023-06-11T10:00:24.365Z,26.54
2023-06-11T10:02:52.323Z,26.63
2023-06-11T10:05:20.272Z,26.59
2023-06-11T10:07:51.801Z,26.71
2023-06-11T10:10:23.292Z,26.80
2023-06-11T10:12:56.580Z,26.91
2023-06-11T10:15:25.278Z,26.85
2023-06-11T10:17:54.623Z,26.95
2023-06-11T10:20:27.427Z,27.02
2023-06-11T10:23:07.371Z,27.18
2023-06-11T10:25:36.880Z,27.26
2023-06-11T10:28:06.974Z,27.35
2023-06-11T10:30:34.637Z,27.32
2023-06-11T10:33:05.639Z,27.38
2023-06-11T10:35:34.191Z,27.51
2023-06-11T10:38:06.640Z,27.54
2023-06-11T10:40:35.859Z,27.63
2023-06-11T10:43:13.768Z,27.68
2023-06-11T10:45:41.391Z,27.82
2023-06-11T10:48:12.652Z,27.82
2023-06-11T10:50:40.898Z,27.80
2023-06-11T10:53:14.159Z,27.58
2023-06-11T10:55:45.552Z,27.68
2023-06-11T10:58:23.853Z,27.69
2023-06-11T11:00:54.004Z,27.77
2023-06-11T11:03:23.399Z,27.86
2023-06-11T11:05:52.181Z,28.02
2023-06-11T11:08:21.723Z,28.01
2023-06-11T11:10:55.520Z,28.10
2023-06-11T11:13:24.818Z,28.11
2023-06-11T11:15:53.004Z,28.13
2023-06-11T11:18:20.586Z,28.31
2023-06-11T11:20:48.202Z,28.22
2023-06-11T11:23:15.712Z,28.14
2023-06-11T11:25:43.541Z,28.23
2023-06-11T11:28:12.588Z,28.14
2023-06-11T11:30:41.880Z,27.63
2023-06-11T11:33:09.720Z,27.72
2023-06-11T11:35:47.630Z,27.87
2023-06-11T11:38:15.471Z,27.84
2023-06-11T11:40:43.186Z,27.88
2023-06-11T11:43:13.680Z,28.06
2023-06-11T11:45:48.027Z,28.14
2023-06-11T11:48:16.209Z,28.16
2023-06-11T11:50:45.838Z,28.25
2023-06-11T11:53:16.350Z,28.19
2023-06-11T11:56:00.323Z,28.33
2023-06-11T11:58:38.687Z,28.45
2023-06-11T12:01:09.797Z,28.58
2023-06-11T12:03:38.420Z,28.75
2023-06-11T12:06:07.991Z,28.68
2023-06-11T12:08:37.189Z,28.74
2023-06-11T12:11:07.699Z,28.82
2023-06-11T12:13:36.082Z,28.91
2023-06-11T12:16:05.119Z,28.89
2023-06-11T12:18:34.470Z,28.95
2023-06-11T12:21:02.106Z,28.86
2023-06-11T12:23:29.652Z,28.84
2023-06-11T12:25:57.256Z,29.13
2023-06-11T12:28:24.844Z,29.10
2023-06-11T12:30:52.577Z,28.90
2023-06-11T12:33:20.387Z,28.64
2023-06-11T12:35:49.433Z,28.51
2023-06-11T12:38:18.495Z,28.44
2023-06-11T12:40:46.169Z,28.46
2023-06-11T12:43:13.703Z,28.37
2023-06-11T12:45:41.359Z,28.37
2023-06-11T12:48:09.063Z,28.19
2023-06-11T12:50:36.768Z,28.04
2023-06-11T12:53:05.841Z,28.37
2023-06-11T12:55:33.604Z,28.37
2023-06-11T12:58:01.135Z,28.32
2023-06-11T13:00:31.500Z,28.30
2023-06-11T13:02:59.410Z,28.09
2023-06-11T13:05:27.815Z,28.23
2023-06-11T13:07:57.346Z,28.25
2023-06-11T13:10:27.060Z,28.35
2023-06-11T13:12:59.506Z,28.49
2023-06-11T13:15:27.424Z,28.61
2023-06-11T13:17:55.334Z,28.77
2023-06-11T13:20:23.409Z,28.74
2023-06-11T13:22:51.368Z,28.89
2023-06-11T13:25:19.099Z,28.93
2023-06-11T13:27:49.372Z,29.01
2023-06-11T13:30:17.626Z,29.03
2023-06-11T13:32:45.384Z,28.98
2023-06-11T13:35:13.538Z,28.84
2023-06-11T13:37:41.754Z,28.79
2023-06-11T13:40:12.717Z,28.86
2023-06-11T13:42:41.359Z,28.88
2023-06-11T13:45:11.011Z,28.88
2023-06-11T13:47:39.036Z,28.96
2023-06-11T13:50:07.863Z,28.95
2023-06-11T13:52:36.542Z,28.95
2023-06-11T13:55:04.297Z,29.01
2023-06-11T13:57:33.907Z,28.95
2023-06-11T14:00:01.693Z,29.03
2023-06-11T14:02:30.597Z,29.15
2023-06-11T14:04:58.363Z,29.12
2023-06-11T14:07:25.984Z,29.11
2023-06-11T14:09:53.621Z,29.11
2023-06-11T14:12:21.111Z,29.16
2023-06-11T14:14:48.700Z,29.25
2023-06-11T14:17:54.656Z,29.41
2023-06-11T14:20:23.695Z,29.35
2023-06-11T14:22:51.256Z,29.36
2023-06-11T14:25:18.962Z,29.35
2023-06-11T14:27:46.511Z,29.42
2023-06-11T14:30:15.220Z,29.42
2023-06-11T14:32:42.801Z,29.31
2023-06-11T14:35:10.573Z,29.41
2023-06-11T14:37:39.405Z,29.46
2023-06-11T14:40:08.303Z,29.42
2023-06-11T14:42:35.915Z,29.38
2023-06-11T14:45:03.690Z,29.49
2023-06-11T14:47:31.447Z,29.38
2023-06-11T14:49:59.008Z,29.50
2023-06-11T14:52:26.539Z,29.43
2023-06-11T14:54:55.573Z,29.34
2023-06-11T14:57:26.111Z,29.39
2023-06-11T14:59:54.348Z,29.30
2023-06-11T15:02:21.993Z,29.42
2023-06-11T15:04:49.602Z,29.44
2023-06-11T15:07:33.387Z,29.40
2023-06-11T15:10:05.950Z,29.47
2023-06-11T15:12:33.664Z,29.31
2023-06-11T15:15:02.136Z,29.17
2023-06-11T15:17:36.532Z,29.16
2023-06-11T15:20:06.037Z,29.21
2023-06-11T15:22:36.084Z,29.12
2023-06-11T15:25:05.240Z,29.17
2023-06-11T15:27:32.810Z,29.23
2023-06-11T15:30:00.418Z,29.24
2023-06-11T15:32:28.089Z,29.24
2023-06-11T15:34:55.647Z,29.23
2023-06-11T15:37:23.177Z,29.21
2023-06-11T15:39:51.667Z,29.08
2023-06-11T15:42:21.057Z,29.30
2023-06-11T15:44:49.502Z,29.34
2023-06-11T15:47:17.696Z,29.39
2023-06-11T15:49:45.431Z,29.54
2023-06-11T15:52:13.018Z,29.61
2023-06-11T15:54:40.588Z,29.62
2023-06-11T15:57:08.576Z,29.64
2023-06-11T15:59:37.662Z,29.58
2023-06-11T16:02:05.870Z,29.57
2023-06-11T16:04:33.671Z,29.55
2023-06-11T16:07:01.978Z,29.53
2023-06-11T16:09:29.696Z,29.55
2023-06-11T16:11:57.291Z,29.53
2023-06-11T16:14:24.901Z,29.58
2023-06-11T16:16:53.760Z,29.53
2023-06-11T16:19:21.336Z,29.49
2023-06-11T16:21:48.922Z,29.47
2023-06-11T16:24:16.529Z,29.56
2023-06-11T16:26:46.839Z,29.68
2023-06-11T16:29:14.561Z,29.67
2023-06-11T16:31:43.963Z,29.55
2023-06-11T16:34:13.406Z,29.65
2023-06-11T16:36:40.982Z,30.00
2023-06-11T16:39:25.819Z,30.23
2023-06-11T16:41:54.717Z,30.49
2023-06-11T16:44:22.225Z,30.48
2023-06-11T16:46:49.820Z,30.42
2023-06-11T16:49:19.311Z,30.50
2023-06-11T16:51:47.020Z,30.50
2023-06-11T16:54:18.291Z,30.62
2023-06-11T16:56:46.468Z,30.86
2023-06-11T16:59:14.201Z,31.14
2023-06-11T17:01:41.789Z,31.34
2023-06-11T17:04:12.079Z,31.63
2023-06-11T17:06:42.737Z,32.05
2023-06-11T17:09:10.396Z,32.37
2023-06-11T17:11:37.902Z,32.70
2023-06-11T17:14:05.980Z,33.00
2023-06-11T17:16:33.668Z,32.79
2023-06-11T17:19:01.157Z,33.02
2023-06-11T17:21:28.679Z,32.81
2023-06-11T17:23:58.285Z,32.83
2023-06-11T17:26:28.202Z,32.28
2023-06-11T17:28:55.742Z,32.26
2023-06-11T17:31:23.369Z,32.07
2023-06-11T17:33:50.894Z,32.34
2023-06-11T17:36:18.685Z,32.21
2023-06-11T17:38:47.126Z,31.86
2023-06-11T17:41:16.549Z,31.85
2023-06-11T17:43:44.788Z,31.65
2023-06-11T17:46:13.571Z,31.51
2023-06-11T17:48:41.221Z,31.18
2023-06-11T17:51:08.837Z,30.76
2023-06-11T17:53:36.388Z,30.53
2023-06-11T17:56:03.948Z,30.35
2023-06-11T17:58:32.784Z,30.22
2023-06-11T18:01:00.461Z,30.08
2023-06-11T18:03:28.130Z,29.88
2023-06-11T18:05:55.701Z,29.91
2023-06-11T18:08:23.250Z,29.64
2023-06-11T18:10:50.809Z,29.51
2023-06-11T18:13:18.344Z,29.35
2023-06-11T18:15:47.505Z,29.33
2023-06-11T18:18:16.179Z,29.13
2023-06-11T18:20:43.687Z,29.02
2023-06-11T18:23:33.750Z,29.01
2023-06-11T18:26:01.290Z,28.90
2023-06-11T18:28:28.888Z,28.82
2023-06-11T18:30:57.794Z,28.71
2023-06-11T18:33:25.375Z,28.60
2023-06-11T18:35:52.916Z,28.55
2023-06-11T18:38:20.493Z,28.47
2023-06-11T18:40:47.998Z,28.32
2023-06-11T18:43:15.480Z,28.30
2023-06-11T18:45:43.086Z,28.27
2023-06-11T18:48:12.154Z,28.13
2023-06-11T18:50:40.054Z,28.03
2023-06-11T18:53:07.585Z,27.92
2023-06-11T18:55:35.228Z,27.79
2023-06-11T18:58:07.316Z,27.73
2023-06-11T19:00:37.651Z,27.70
2023-06-11T19:03:05.779Z,27.56
2023-06-11T19:05:35.034Z,27.46
2023-06-11T19:08:03.477Z,27.42
2023-06-11T19:10:31.257Z,27.41
2023-06-11T19:12:59.301Z,27.28
2023-06-11T19:15:26.809Z,27.18
2023-06-11T19:17:54.419Z,27.09
2023-06-11T19:20:22.045Z,26.97
2023-06-11T19:22:50.881Z,26.94
2023-06-11T19:25:18.394Z,26.86
2023-06-11T19:27:46.009Z,26.73
2023-06-11T19:30:15.801Z,26.62
2023-06-11T19:32:43.834Z,26.64
2023-06-11T19:35:11.744Z,26.47
2023-06-11T19:37:39.281Z,26.42
2023-06-11T19:40:10.360Z,26.40
2023-06-11T19:42:38.302Z,26.29
2023-06-11T19:45:08.248Z,26.22
2023-06-11T19:47:36.209Z,26.13
2023-06-11T19:50:06.209Z,26.06
2023-06-11T19:52:33.862Z,26.07
2023-06-11T19:55:01.733Z,25.93
2023-06-11T19:57:30.561Z,25.80
2023-06-11T20:00:00.005Z,25.72
2023-06-11T20:02:28.418Z,25.67
2023-06-11T20:04:56.851Z,25.56
2023-06-11T20:07:24.389Z,25.47
2023-06-11T20:09:52.743Z,25.44
2023-06-11T20:12:20.462Z,25.38
2023-06-11T20:14:49.839Z,25.34
2023-06-11T20:17:17.366Z,25.28
2023-06-11T20:19:45.110Z,25.22
2023-06-11T20:22:12.709Z,25.08
2023-06-11T20:24:40.616Z,25.03
2023-06-11T20:27:11.464Z,24.95
2023-06-11T20:29:39.361Z,24.84
2023-06-11T20:32:10.150Z,24.85
2023-06-11T20:34:38.394Z,24.80
2023-06-11T20:37:06.758Z,24.75
2023-06-11T20:39:34.284Z,24.69
2023-06-11T20:42:01.794Z,24.61
2023-06-11T20:44:29.328Z,24.63
2023-06-11T20:46:56.920Z,24.55
2023-06-11T20:49:25.885Z,24.40
2023-06-11T20:51:57.829Z,24.29
2023-06-11T20:54:25.581Z,24.21
2023-06-11T20:56:53.090Z,24.09
2023-06-11T20:59:20.747Z,24.05
2023-06-11T21:01:48.333Z,23.97
2023-06-11T21:04:15.972Z,23.88
2023-06-11T21:06:44.875Z,23.80
2023-06-11T21:09:12.681Z,23.73
2023-06-11T21:11:40.165Z,23.67
2023-06-11T21:14:14.332Z,23.63
2023-06-11T21:16:42.905Z,23.59
2023-06-11T21:19:10.595Z,23.58
2023-06-11T21:21:38.553Z,23.51
2023-06-11T21:24:08.478Z,23.48
2023-06-11T21:26:36.197Z,23.42
2023-06-11T21:29:04.173Z,23.39
2023-06-11T21:31:31.753Z,23.31
2023-06-11T21:33:59.890Z,23.27
2023-06-11T21:36:27.588Z,23.18
2023-06-11T21:38:55.822Z,23.07
2023-06-11T21:41:24.656Z,23.07
2023-06-11T21:43:52.145Z,23.02
2023-06-11T21:46:19.697Z,23.04
2023-06-11T21:48:47.225Z,23.04
2023-06-11T21:51:14.886Z,22.96
2023-06-11T21:53:42.421Z,22.89
2023-06-11T21:56:10.394Z,22.81
2023-06-11T21:58:39.477Z,22.78
2023-06-11T22:01:07.047Z,22.64
2023-06-11T22:03:34.620Z,22.67
2023-06-11T22:06:03.941Z,22.57
2023-06-11T22:08:31.661Z,22.55
2023-06-11T22:10:59.169Z,22.51
2023-06-11T22:13:27.786Z,22.41
2023-06-11T22:16:04.722Z,22.31
2023-06-11T22:18:33.956Z,22.28
2023-06-11T22:21:01.799Z,22.20
2023-06-11T22:23:48.942Z,22.10
2023-06-11T22:26:18.110Z,22.08
2023-06-11T22:28:45.768Z,22.01
2023-06-11T22:31:14.801Z,22.01
2023-06-11T22:33:42.345Z,21.96
2023-06-11T22:36:10.039Z,21.97
2023-06-11T22:38:37.598Z,21.94
2023-06-11T22:41:05.161Z,21.93
2023-06-11T22:43:32.758Z,21.86
2023-06-11T22:46:00.294Z,21.80
2023-06-11T22:48:29.170Z,21.81
2023-06-11T22:50:57.816Z,21.71
2023-06-11T22:53:28.732Z,21.74
2023-06-11T22:55:57.172Z,21.70
2023-06-11T22:58:24.698Z,21.64
2023-06-11T23:00:52.308Z,21.60
2023-06-11T23:03:19.881Z,21.58
2023-06-11T23:05:48.811Z,21.53
2023-06-11T23:08:16.421Z,21.50
2023-06-11T23:10:45.665Z,21.44
2023-06-11T23:13:13.220Z,21.42
2023-06-11T23:15:40.782Z,21.40
2023-06-11T23:18:10.898Z,21.36
2023-06-11T23:20:38.492Z,21.32
2023-06-11T23:23:07.512Z,21.21
2023-06-11T23:25:35.110Z,21.25
2023-06-11T23:28:02.667Z,21.15
2023-06-11T23:30:30.887Z,21.21
2023-06-11T23:33:01.065Z,21.11
2023-06-11T23:35:28.764Z,21.14
2023-06-11T23:37:57.657Z,21.09
2023-06-11T23:40:26.659Z,21.15
2023-06-11T23:42:54.250Z,21.09
2023-06-11T23:45:21.789Z,21.07
2023-06-11T23:47:49.404Z,21.05
2023-06-11T23:50:17.010Z,21.01
2023-06-11T23:52:44.646Z,21.08
2023-06-11T23:55:12.206Z,21.04
2023-06-11T23:57:41.310Z,20.98
